Time;durP1;ratioP1;P1;durP2;ratioP2;P2;SDS_P1;SDS_P2;PMS_P1;PMS_P2;Temp;Humidity;BMP_temperature;BMP_pressure;BME280_temperature;BME280_humidity;BME280_pressure;Samples;Min_cycle;Max_cycle;Signal;HPM_P1;HPM_P2
2022/10/23 00:00:22;;;;;;;16.92;9.70;;;10.60;99.90;;;;;;5084430;28;20127;-65
2022/10/23 00:02:52;;;;;;;23.13;12.05;;;10.60;99.90;;;;;;5051777;28;20064;-65
2022/10/23 00:05:19;;;;;;;14.45;8.73;;;10.60;99.90;;;;;;5051493;28;20107;-65
2022/10/23 00:07:48;;;;;;;14.48;8.00;;;10.60;99.90;;;;;;5033364;28;20041;-65
2022/10/23 00:10:14;;;;;;;17.92;9.13;;;10.70;99.90;;;;;;5051306;28;20067;-65
2022/10/23 00:12:40;;;;;;;14.30;8.32;;;10.60;99.90;;;;;;5052336;28;20452;-65
2022/10/23 00:15:06;;;;;;;18.75;9.30;;;10.60;99.90;;;;;;5051514;28;20041;-65
2022/10/23 00:17:33;;;;;;;17.63;8.32;;;10.60;99.90;;;;;;5052132;28;20500;-65
2022/10/23 00:19:59;;;;;;;16.33;8.43;;;10.60;99.90;;;;;;5050848;28;20147;-65
2022/10/23 00:22:25;;;;;;;14.85;8.60;;;10.60;99.90;;;;;;5051659;28;20132;-65
2022/10/23 00:24:51;;;;;;;20.25;9.13;;;10.60;99.90;;;;;;5050319;28;20080;-65
2022/10/23 00:27:16;;;;;;;16.70;8.77;;;10.60;99.90;;;;;;5084514;28;20052;-65
2022/10/23 00:29:43;;;;;;;21.15;10.45;;;10.60;99.90;;;;;;5050737;28;20045;-65
2022/10/23 00:32:09;;;;;;;15.60;7.93;;;10.60;99.90;;;;;;5051749;28;20033;-65
2022/10/23 00:34:35;;;;;;;15.48;8.25;;;10.60;99.90;;;;;;5051957;28;20124;-65
2022/10/23 00:37:01;;;;;;;18.48;8.18;;;10.50;99.90;;;;;;5033306;28;20037;-65
2022/10/23 00:39:26;;;;;;;13.65;7.85;;;10.50;99.90;;;;;;5052305;28;20036;-65
2022/10/23 00:41:52;;;;;;;18.77;8.05;;;10.50;99.90;;;;;;5051623;28;20122;-65
2022/10/23 00:44:20;;;;;;;20.17;8.68;;;10.50;99.90;;;;;;5083379;28;20049;-65
2022/10/23 00:46:47;;;;;;;16.70;8.43;;;10.50;99.90;;;;;;5050622;28;20049;-65
2022/10/23 00:49:13;;;;;;;17.13;8.80;;;10.50;99.90;;;;;;5052364;28;20041;-65
2022/10/23 00:51:51;;;;;;;24.05;11.25;;;10.50;99.90;;;;;;5051129;28;20041;-65
2022/10/23 00:54:20;;;;;;;20.52;10.52;;;10.50;99.90;;;;;;5050760;28;20048;-65
2022/10/23 00:56:46;;;;;;;16.30;9.38;;;10.50;99.90;;;;;;5050761;28;20481;-65
2022/10/23 00:59:12;;;;;;;25.70;11.65;;;10.50;99.90;;;;;;5051770;28;20037;-65
2022/10/23 01:01:38;;;;;;;19.98;10.52;;;10.50;99.90;;;;;;5051933;28;20379;-65
2022/10/23 01:04:06;;;;;;;16.48;9.68;;;10.50;99.90;;;;;;5050961;28;20384;-65
2022/10/23 01:06:47;;;;;;;16.00;10.00;;;10.50;99.90;;;;;;5051875;28;20045;-65
2022/10/23 01:09:26;;;;;;;15.20;10.45;;;10.50;99.90;;;;;;5052173;28;20531;-65
2022/10/23 01:12:19;;;;;;;21.00;9.52;;;10.50;99.90;;;;;;5050402;28;20048;-65
2022/10/23 01:15:08;;;;;;;18.98;10.95;;;10.50;99.90;;;;;;5051450;28;20090;-65
2022/10/23 01:17:44;;;;;;;19.90;10.52;;;10.50;99.90;;;;;;5049893;28;20049;-65
2022/10/23 01:20:22;;;;;;;22.58;12.32;;;10.50;99.90;;;;;;5052032;28;20036;-65
2022/10/23 01:23:02;;;;;;;28.67;12.07;;;10.40;99.90;;;;;;5050989;28;20049;-65
2022/10/23 01:25:56;;;;;;;21.10;12.35;;;10.40;99.90;;;;;;5033016;28;20494;-65
2022/10/23 01:28:35;;;;;;;20.42;10.30;;;10.40;99.90;;;;;;5050131;28;20057;-65
2022/10/23 01:31:05;;;;;;;21.90;11.75;;;10.40;99.90;;;;;;5049953;28;20037;-65
2022/10/23 01:33:47;;;;;;;19.52;10.27;;;10.40;99.90;;;;;;5050948;28;20421;-65
2022/10/23 01:36:15;;;;;;;15.15;9.75;;;10.40;99.90;;;;;;5051672;28;20044;-65
2022/10/23 01:39:09;;;;;;;30.70;15.55;;;10.40;99.90;;;;;;5050733;28;20045;-65
2022/10/23 01:41:47;;;;;;;18.17;10.52;;;10.40;99.90;;;;;;5050555;28;20049;-65
2022/10/23 01:44:22;;;;;;;15.35;10.23;;;10.30;99.90;;;;;;5055469;28;20041;-65
2022/10/23 01:46:49;;;;;;;;;;;10.30;99.90;;;;;;5053306;28;20055;-65
2022/10/23 01:49:16;;;;;;;24.58;12.23;;;10.30;99.90;;;;;;5053976;28;19917;-65
2022/10/23 01:51:47;;;;;;;19.90;11.60;;;10.30;99.90;;;;;;5053354;28;20037;-65
2022/10/23 01:54:15;;;;;;;23.98;13.52;;;10.30;99.90;;;;;;5066666;28;20045;-65
2022/10/23 01:56:44;;;;;;;24.08;13.30;;;10.30;99.90;;;;;;5033983;28;20394;-65
2022/10/23 01:59:15;;;;;;;20.00;13.73;;;10.30;99.90;;;;;;5033816;28;20067;-65
2022/10/23 02:01:44;;;;;;;17.90;13.23;;;10.30;99.90;;;;;;5032714;28;20486;-65
2022/10/23 02:04:14;;;;;;;22.92;13.07;;;10.30;99.90;;;;;;5034796;28;20049;-65
2022/10/23 02:06:40;;;;;;;20.15;11.60;;;10.30;99.90;;;;;;5036427;28;20091;-65
2022/10/23 02:09:06;;;;;;;29.73;15.65;;;10.30;99.90;;;;;;5052633;28;20041;-65
2022/10/23 02:11:37;;;;;;;28.88;15.18;;;10.30;99.90;;;;;;5054707;28;20094;-65
2022/10/23 02:14:29;;;;;;;22.70;12.50;;;10.30;99.90;;;;;;5053640;28;20037;-65
2022/10/23 02:17:02;;;;;;;20.08;12.48;;;10.30;99.90;;;;;;5054390;28;20049;-65
2022/10/23 02:19:54;;;;;;;34.35;17.90;;;10.30;99.90;;;;;;5054379;28;20048;-65
2022/10/23 02:22:29;;;;;;;35.63;17.25;;;10.30;99.90;;;;;;5053853;28;20402;-65
2022/10/23 02:25:14;;;;;;;19.20;12.70;;;10.30;99.90;;;;;;5052452;28;20508;-65
2022/10/23 02:27:43;;;;;;;17.80;12.70;;;10.30;99.90;;;;;;5054041;28;20060;-65
2022/10/23 02:30:12;;;;;;;21.27;12.93;;;10.30;99.90;;;;;;5053574;28;20087;-65
2022/10/23 02:32:40;;;;;;;25.02;15.07;;;10.40;99.90;;;;;;5053837;28;20041;-65
2022/10/23 02:35:07;;;;;;;20.00;12.32;;;10.40;99.90;;;;;;5052087;28;20080;-65
2022/10/23 02:37:33;;;;;;;21.13;14.13;;;10.40;99.90;;;;;;5036230;28;20080;-65
2022/10/23 02:39:59;;;;;;;22.08;13.18;;;10.40;99.90;;;;;;5054056;28;20485;-65
2022/10/23 02:42:35;;;;;;;24.08;15.02;;;10.30;99.90;;;;;;5053548;28;20044;-65
2022/10/23 02:45:14;;;;;;;25.85;15.77;;;10.40;99.90;;;;;;5053960;28;20068;-65
2022/10/23 02:47:45;;;;;;;23.60;15.43;;;10.30;99.90;;;;;;5053948;28;20041;-65
2022/10/23 02:50:20;;;;;;;24.35;15.10;;;10.30;99.90;;;;;;5051948;28;20143;-65
2022/10/23 02:53:06;;;;;;;;;;;10.30;99.90;;;;;;5052367;28;20048;-65
2022/10/23 02:55:44;;;;;;;24.77;14.85;;;10.20;99.90;;;;;;5035866;28;20007;-65
2022/10/23 02:58:27;;;;;;;25.23;15.15;;;10.20;99.90;;;;;;5051868;28;20059;-65
2022/10/23 03:01:06;;;;;;;23.33;14.23;;;10.30;99.90;;;;;;5051964;28;20059;-65
2022/10/23 03:03:42;;;;;;;29.80;15.88;;;10.20;99.90;;;;;;5051400;28;20045;-65
2022/10/23 03:06:08;;;;;;;22.58;13.77;;;10.20;99.90;;;;;;5052205;28;20052;-65
2022/10/23 03:08:43;;;;;;;17.88;11.85;;;10.20;99.90;;;;;;5053737;28;20033;-65
2022/10/23 03:11:08;;;;;;;24.63;14.10;;;10.20;99.90;;;;;;5051542;28;20068;-65
2022/10/23 03:13:34;;;;;;;24.77;14.75;;;10.20;99.90;;;;;;5051969;28;20040;-65
2022/10/23 03:16:00;;;;;;;19.35;12.30;;;10.20;99.90;;;;;;5052018;28;20045;-65
2022/10/23 03:18:26;;;;;;;22.15;13.65;;;10.20;99.90;;;;;;5052676;28;20045;-65
2022/10/23 03:20:51;;;;;;;21.98;12.80;;;10.20;99.90;;;;;;5052852;28;20044;-65
2022/10/23 03:23:17;;;;;;;21.50;13.40;;;10.20;99.90;;;;;;5053355;28;20040;-65
2022/10/23 03:25:42;;;;;;;18.20;12.95;;;10.30;99.90;;;;;;5051421;28;20037;-65
2022/10/23 03:28:08;;;;;;;21.38;13.23;;;10.30;99.90;;;;;;5052750;28;20041;-65
2022/10/23 03:30:34;;;;;;;22.40;13.57;;;10.30;99.90;;;;;;5052792;28;20043;-65
2022/10/23 03:32:59;;;;;;;22.55;14.15;;;10.20;99.90;;;;;;5051036;28;20083;-65
2022/10/23 03:35:25;;;;;;;22.80;14.68;;;10.20;99.90;;;;;;5052343;28;20555;-65
2022/10/23 03:37:51;;;;;;;22.65;14.50;;;10.30;99.90;;;;;;5051226;28;20040;-65
2022/10/23 03:40:16;;;;;;;22.52;13.30;;;10.20;99.90;;;;;;5052382;28;20087;-65
2022/10/23 03:42:42;;;;;;;25.38;13.23;;;10.20;99.90;;;;;;5051197;28;20094;-65
2022/10/23 03:45:08;;;;;;;27.67;13.80;;;10.20;99.90;;;;;;5051429;28;20078;-65
2022/10/23 03:47:34;;;;;;;17.50;13.40;;;10.20;99.90;;;;;;5050634;28;20040;-65
2022/10/23 03:50:00;;;;;;;24.52;14.13;;;10.20;99.90;;;;;;5051289;28;20485;-65
2022/10/23 03:52:26;;;;;;;21.05;13.02;;;10.10;99.90;;;;;;5051067;28;20458;-65
2022/10/23 03:54:52;;;;;;;23.42;15.10;;;10.10;99.90;;;;;;5052401;28;20056;-65
2022/10/23 03:57:17;;;;;;;23.27;14.85;;;10.10;99.90;;;;;;5051342;28;20056;-65
2022/10/23 03:59:43;;;;;;;22.17;14.73;;;10.20;99.90;;;;;;5051730;28;20041;-65
2022/10/23 04:02:09;;;;;;;23.55;15.10;;;10.10;99.90;;;;;;5052111;28;20055;-65
2022/10/23 04:04:35;;;;;;;21.00;14.63;;;10.10;99.90;;;;;;5050346;28;20045;-65
2022/10/23 04:07:00;;;;;;;23.95;16.13;;;10.10;99.90;;;;;;5050162;28;20474;-65
2022/10/23 04:09:26;;;;;;;24.88;15.68;;;10.10;99.90;;;;;;5051453;28;20083;-65
2022/10/23 04:11:54;;;;;;;22.23;15.15;;;10.10;99.90;;;;;;5052211;28;20032;-65
2022/10/23 04:14:19;;;;;;;27.33;16.45;;;10.10;99.90;;;;;;5051801;28;20044;-65
2022/10/23 04:16:45;;;;;;;36.90;17.73;;;10.10;99.90;;;;;;5051824;28;20052;-65
2022/10/23 04:19:10;;;;;;;28.65;16.15;;;10.10;99.90;;;;;;5034683;28;20045;-65
2022/10/23 04:21:36;;;;;;;24.55;16.83;;;10.10;99.90;;;;;;5050096;28;20139;-65
2022/10/23 04:24:02;;;;;;;21.25;15.13;;;10.10;99.90;;;;;;5050896;28;20478;-65
2022/10/23 04:26:28;;;;;;;24.02;16.60;;;10.10;99.90;;;;;;5052354;28;20036;-65
2022/10/23 04:28:53;;;;;;;26.40;17.33;;;10.10;99.90;;;;;;5049337;28;20118;-65
2022/10/23 04:31:19;;;;;;;27.35;17.20;;;10.10;99.90;;;;;;5050791;28;20052;-65
2022/10/23 04:33:45;;;;;;;24.00;16.27;;;10.10;99.90;;;;;;5051632;28;20094;-65
2022/10/23 04:36:10;;;;;;;24.02;17.35;;;10.20;99.90;;;;;;5051234;28;20036;-65
2022/10/23 04:38:36;;;;;;;25.17;17.88;;;10.10;99.90;;;;;;5051858;28;20037;-65
2022/10/23 04:41:02;;;;;;;27.65;17.17;;;10.10;99.90;;;;;;5051895;28;20072;-65
2022/10/23 04:43:28;;;;;;;33.15;17.85;;;10.10;99.90;;;;;;5050446;28;20102;-65
2022/10/23 04:45:53;;;;;;;31.05;18.98;;;10.20;99.90;;;;;;5051461;28;20508;-65
2022/10/23 04:48:19;;;;;;;31.67;18.95;;;10.20;99.90;;;;;;5052154;28;20037;-65
2022/10/23 04:51:01;;;;;;;27.08;16.83;;;10.20;99.90;;;;;;5049357;28;20037;-65
2022/10/23 04:53:27;;;;;;;24.33;17.88;;;10.20;99.90;;;;;;5050848;28;20051;-65
2022/10/23 04:55:54;;;;;;;28.27;18.17;;;10.20;99.90;;;;;;5049595;28;20119;-65
2022/10/23 04:58:21;;;;;;;24.70;17.40;;;10.20;99.90;;;;;;5051068;28;20446;-65
2022/10/23 05:00:47;;;;;;;26.85;17.55;;;10.10;99.90;;;;;;5051242;28;20039;-65
2022/10/23 05:03:14;;;;;;;27.35;18.67;;;10.10;99.90;;;;;;5051077;28;20083;-65
2022/10/23 05:05:40;;;;;;;25.60;18.42;;;10.10;99.90;;;;;;5051824;28;20041;-65
2022/10/23 05:08:06;;;;;;;30.20;18.60;;;10.10;99.90;;;;;;5050769;28;20041;-65
2022/10/23 05:10:32;;;;;;;34.05;19.30;;;10.10;99.90;;;;;;5049952;28;20040;-65
2022/10/23 05:12:57;;;;;;;28.98;19.40;;;10.10;99.90;;;;;;5050399;28;20033;-65
2022/10/23 05:15:23;;;;;;;27.98;19.75;;;10.10;99.90;;;;;;5050575;28;20101;-65
2022/10/23 05:17:52;;;;;;;34.55;20.52;;;10.10;99.90;;;;;;5053710;28;20075;-65
2022/10/23 05:20:23;;;;;;;27.30;18.63;;;10.10;99.90;;;;;;5056005;28;20067;-65
2022/10/23 05:22:53;;;;;;;29.30;18.85;;;10.10;99.90;;;;;;5054325;28;20045;-65
2022/10/23 05:25:18;;;;;;;40.97;31.23;;;10.10;99.90;;;;;;5055415;28;20037;-65
2022/10/23 05:27:44;;;;;;;30.23;21.73;;;10.00;99.90;;;;;;5055033;28;20098;-65
2022/10/23 05:30:10;;;;;;;28.77;21.55;;;10.00;99.90;;;;;;5054947;28;20131;-65
2022/10/23 05:32:37;;;;;;;29.15;20.83;;;10.00;99.90;;;;;;5053369;28;20041;-65
2022/10/23 05:35:08;;;;;;;31.58;22.48;;;10.10;99.90;;;;;;5055389;28;20044;-65
2022/10/23 05:37:38;;;;;;;53.17;38.45;;;10.10;99.90;;;;;;5037419;28;20083;-65
2022/10/23 05:40:04;;;;;;;42.03;30.20;;;10.10;99.90;;;;;;5052834;28;20044;-65
2022/10/23 05:42:30;;;;;;;27.75;21.77;;;10.10;99.90;;;;;;5054242;28;20494;-65
2022/10/23 05:44:55;;;;;;;39.78;26.77;;;10.10;99.90;;;;;;5052855;28;20048;-65
2022/10/23 05:47:21;;;;;;;50.72;34.28;;;10.10;99.90;;;;;;5055558;28;20037;-65
2022/10/23 05:49:46;;;;;;;39.30;27.15;;;10.10;99.90;;;;;;5054991;28;20037;-65
2022/10/23 05:52:12;;;;;;;29.15;20.92;;;10.10;99.90;;;;;;5054027;28;20111;-65
2022/10/23 05:54:38;;;;;;;38.85;21.83;;;10.10;99.90;;;;;;5054628;28;20045;-65
2022/10/23 05:57:03;;;;;;;35.75;22.65;;;10.10;99.90;;;;;;5054726;28;20045;-65
2022/10/23 05:59:29;;;;;;;39.20;21.42;;;10.10;99.90;;;;;;5053085;28;20056;-65
2022/10/23 06:01:55;;;;;;;46.58;33.55;;;10.10;99.90;;;;;;5054561;28;20044;-65
2022/10/23 06:04:20;;;;;;;44.20;25.83;;;10.10;99.90;;;;;;5055026;28;20102;-65
2022/10/23 06:06:46;;;;;;;129.40;85.78;;;10.10;99.90;;;;;;5052273;28;20481;-65
2022/10/23 06:09:14;;;;;;;59.17;37.08;;;10.10;99.90;;;;;;5054880;28;20029;-65
2022/10/23 06:11:40;;;;;;;52.97;33.95;;;10.10;99.90;;;;;;5054340;28;20041;-65
2022/10/23 06:14:06;;;;;;;39.13;27.88;;;10.10;99.90;;;;;;5052647;28;20397;-65
2022/10/23 06:16:32;;;;;;;39.78;26.10;;;10.10;99.90;;;;;;5054931;28;20037;-65
2022/10/23 06:18:58;;;;;;;30.23;20.95;;;10.10;99.90;;;;;;5053104;28;20134;-65
2022/10/23 06:21:24;;;;;;;30.25;21.83;;;10.20;99.90;;;;;;5052414;28;20121;-64
2022/10/23 06:23:50;;;;;;;33.10;21.23;;;10.20;99.90;;;;;;5053901;28;20116;-65
2022/10/23 06:26:17;;;;;;;39.50;25.10;;;10.20;99.90;;;;;;5054399;28;20452;-65
2022/10/23 06:28:43;;;;;;;33.63;22.88;;;10.20;99.90;;;;;;5052208;28;20083;-65
2022/10/23 06:31:11;;;;;;;37.97;25.52;;;10.20;99.90;;;;;;5052970;28;20037;-65
2022/10/23 06:33:37;;;;;;;32.40;21.38;;;10.20;99.90;;;;;;5052932;28;20049;-65
2022/10/23 06:36:04;;;;;;;43.42;27.63;;;10.20;99.90;;;;;;5053203;28;20032;-65
2022/10/23 06:38:35;;;;;;;39.53;24.77;;;10.20;99.90;;;;;;5052986;28;20049;-65
2022/10/23 06:41:01;;;;;;;32.65;20.63;;;10.20;99.90;;;;;;5052912;28;20198;-65
2022/10/23 06:43:27;;;;;;;39.75;25.25;;;10.20;99.90;;;;;;5052031;28;20498;-65
2022/10/23 06:45:52;;;;;;;60.78;39.13;;;10.30;99.90;;;;;;5052484;28;20094;-65
2022/10/23 06:48:18;;;;;;;45.25;30.83;;;10.30;99.90;;;;;;5050850;28;20033;-65
2022/10/23 06:50:44;;;;;;;35.95;23.33;;;10.30;99.90;;;;;;5052548;28;20393;-65
2022/10/23 06:53:11;;;;;;;37.25;23.20;;;10.40;99.90;;;;;;5036210;28;20546;-65
2022/10/23 06:55:40;;;;;;;28.08;20.67;;;10.40;99.90;;;;;;5052513;28;20065;-66
2022/10/23 06:58:09;;;;;;;27.65;20.83;;;10.40;99.90;;;;;;5053611;28;20033;-66
2022/10/23 07:00:39;;;;;;;32.30;22.10;;;10.50;99.90;;;;;;5034896;28;20037;-66
2022/10/23 07:03:07;;;;;;;38.90;23.40;;;10.50;99.90;;;;;;5033771;28;20037;-65
2022/10/23 07:05:33;;;;;;;34.63;22.42;;;10.60;99.90;;;;;;5051624;28;20486;-65
2022/10/23 07:07:59;;;;;;;30.98;21.23;;;10.60;99.90;;;;;;5053606;28;20052;-65
2022/10/23 07:10:25;;;;;;;33.72;22.08;;;10.60;99.90;;;;;;5053240;28;20040;-65
2022/10/23 07:12:51;;;;;;;37.17;22.77;;;10.70;99.90;;;;;;5053379;28;20389;-65
2022/10/23 07:15:17;;;;;;;31.35;22.77;;;10.70;99.90;;;;;;5052421;28;20041;-65
2022/10/23 07:17:42;;;;;;;62.05;40.22;;;10.70;99.90;;;;;;5052777;28;20037;-65
2022/10/23 07:20:08;;;;;;;38.85;25.92;;;10.80;99.90;;;;;;5052068;28;20126;-65
2022/10/23 07:22:34;;;;;;;35.25;21.40;;;10.80;99.90;;;;;;5053558;28;20035;-66
2022/10/23 07:24:59;;;;;;;31.88;21.52;;;10.90;99.90;;;;;;5052329;28;20090;-65
2022/10/23 07:27:25;;;;;;;33.65;22.00;;;10.90;99.90;;;;;;5053464;28;20497;-65
2022/10/23 07:29:51;;;;;;;35.38;22.23;;;10.90;99.90;;;;;;5052684;28;20572;-65
2022/10/23 07:32:18;;;;;;;36.22;23.38;;;11.00;99.90;;;;;;5051601;28;20513;-66
2022/10/23 07:34:44;;;;;;;38.90;24.60;;;11.10;99.90;;;;;;5053133;28;20466;-65
2022/10/23 07:37:09;;;;;;;38.58;26.17;;;11.10;99.90;;;;;;5051279;28;20041;-65
2022/10/23 07:39:35;;;;;;;33.30;20.65;;;11.10;99.90;;;;;;5050328;28;20041;-65
2022/10/23 07:42:00;;;;;;;34.58;22.63;;;11.20;99.90;;;;;;5051502;28;20043;-65
2022/10/23 07:44:26;;;;;;;32.67;20.55;;;11.30;99.90;;;;;;5050647;28;20048;-65
2022/10/23 07:46:52;;;;;;;28.88;20.20;;;11.30;99.90;;;;;;5052293;28;20025;-65
2022/10/23 07:49:18;;;;;;;105.53;59.90;;;11.30;99.90;;;;;;5052908;28;20108;-65
2022/10/23 07:51:43;;;;;;;123.28;67.55;;;11.40;99.90;;;;;;5050379;28;20501;-65
2022/10/23 07:54:11;;;;;;;67.72;41.03;;;11.40;99.90;;;;;;5050699;28;20076;-66
2022/10/23 07:56:37;;;;;;;85.38;50.05;;;11.50;99.90;;;;;;5051250;28;20045;-66
2022/10/23 07:59:03;;;;;;;66.43;37.72;;;11.50;99.90;;;;;;5083957;28;20044;-66
2022/10/23 08:01:33;;;;;;;47.90;27.30;;;11.50;99.90;;;;;;5052994;28;20045;-66
2022/10/23 08:04:00;;;;;;;127.35;67.75;;;11.50;99.90;;;;;;5051461;28;20094;-66
2022/10/23 08:06:25;;;;;;;48.88;29.98;;;11.60;99.90;;;;;;5050645;28;20036;-66
2022/10/23 08:08:51;;;;;;;67.13;43.53;;;11.60;99.90;;;;;;5051008;28;20319;-66
2022/10/23 08:11:23;;;;;;;32.33;22.45;;;11.60;99.90;;;;;;5084402;28;20049;-65
2022/10/23 08:13:51;;;;;;;41.38;27.10;;;11.70;99.90;;;;;;5050732;28;20041;-65
2022/10/23 08:16:16;;;;;;;57.63;37.42;;;11.70;99.90;;;;;;5045479;28;20037;-65
2022/10/23 08:18:44;;;;;;;32.22;21.38;;;11.70;99.90;;;;;;5043278;28;20452;-65
2022/10/23 08:21:10;;;;;;;29.73;20.30;;;11.80;99.90;;;;;;5043143;28;20045;-65
2022/10/23 08:23:36;;;;;;;34.13;24.40;;;11.80;99.90;;;;;;5046758;28;20081;-65
2022/10/23 08:26:04;;;;;;;37.78;28.52;;;11.80;99.90;;;;;;5047275;28;20076;-65
2022/10/23 08:28:31;;;;;;;33.05;20.95;;;11.90;99.90;;;;;;5048178;28;20049;-65
2022/10/23 08:31:11;;;;;;;37.65;25.17;;;11.90;99.90;;;;;;5080614;28;20076;-65
2022/10/23 08:33:37;;;;;;;48.95;33.47;;;11.90;99.90;;;;;;5049108;28;20403;-65
2022/10/23 08:36:03;;;;;;;29.48;18.27;;;12.00;99.90;;;;;;5049043;28;20032;-65
2022/10/23 08:38:29;;;;;;;26.42;17.13;;;12.10;99.90;;;;;;5078295;28;20131;-65
2022/10/23 08:40:55;;;;;;;23.67;16.42;;;12.10;99.90;;;;;;5045992;28;20136;-65
2022/10/23 08:43:35;;;;;;;23.17;15.48;;;12.10;99.90;;;;;;5046398;28;20095;-65
2022/10/23 08:46:06;;;;;;;36.65;26.40;;;12.20;99.90;;;;;;5046818;28;20048;-65
2022/10/23 08:48:40;;;;;;;27.02;17.77;;;12.30;99.90;;;;;;5047853;28;20048;-65
2022/10/23 08:51:31;;;;;;;25.38;18.30;;;12.30;99.90;;;;;;5032305;28;20100;-66
2022/10/23 08:54:12;;;;;;;33.00;20.98;;;12.40;99.90;;;;;;5044482;28;20053;-65
2022/10/23 08:56:41;;;;;;;26.55;18.60;;;12.50;99.90;;;;;;5042271;28;20056;-65
2022/10/23 08:59:32;;;;;;;23.48;16.55;;;12.50;99.90;;;;;;5052892;28;20037;-65
2022/10/23 09:02:19;;;;;;;19.33;13.43;;;12.60;99.90;;;;;;5053455;28;20076;-65
2022/10/23 09:04:49;;;;;;;21.08;14.73;;;12.70;99.90;;;;;;5084550;28;20076;-66
2022/10/23 09:07:38;;;;;;;20.15;14.32;;;12.70;99.90;;;;;;5052315;28;20040;-65
2022/10/23 09:10:22;;;;;;;20.08;14.02;;;12.70;99.90;;;;;;5051245;28;20037;-65
2022/10/23 09:12:48;;;;;;;21.70;14.60;;;12.80;99.90;;;;;;5051171;28;20178;-65
2022/10/23 09:15:30;;;;;;;21.27;14.32;;;12.90;99.90;;;;;;5052010;28;20143;-65
2022/10/23 09:18:05;;;;;;;21.48;14.43;;;13.00;99.90;;;;;;5053129;28;20044;-65
2022/10/23 09:20:33;;;;;;;21.60;12.65;;;13.00;99.90;;;;;;5053950;28;20051;-65
2022/10/23 09:23:22;;;;;;;21.58;14.15;;;13.10;99.90;;;;;;5052075;28;20041;-65
2022/10/23 09:25:54;;;;;;;18.48;12.02;;;13.20;99.90;;;;;;5043532;28;20061;-65
2022/10/23 09:28:30;;;;;;;20.02;12.80;;;13.20;99.90;;;;;;5055648;28;20049;-65
2022/10/23 09:31:10;;;;;;;18.60;12.43;;;13.20;99.90;;;;;;5036590;28;20055;-67
2022/10/23 09:33:37;;;;;;;20.17;12.60;;;13.30;99.90;;;;;;5054309;28;20048;-67
2022/10/23 09:36:06;;;;;;;16.85;11.98;;;13.40;99.90;;;;;;5054235;28;20099;-67
2022/10/23 09:38:37;;;;;;;19.02;12.10;;;13.40;99.90;;;;;;5052600;28;20040;-67
2022/10/23 09:41:10;;;;;;;17.85;10.88;;;13.50;99.90;;;;;;5054163;28;20490;-67
2022/10/23 09:43:35;;;;;;;16.65;11.55;;;13.50;99.90;;;;;;5055026;28;20406;-67
2022/10/23 09:46:04;;;;;;;18.73;10.88;;;13.50;99.90;;;;;;5053620;28;20045;-67
2022/10/23 09:48:31;;;;;;;15.68;11.20;;;13.60;99.90;;;;;;5053897;28;20470;-67
2022/10/23 09:51:03;;;;;;;20.85;11.15;;;13.60;99.90;;;;;;5053920;28;20136;-67
2022/10/23 09:53:32;;;;;;;16.05;10.63;;;13.60;99.90;;;;;;5054242;28;20091;-67
2022/10/23 09:56:01;;;;;;;15.02;9.43;;;13.70;99.90;;;;;;5054386;28;20094;-67
2022/10/23 09:58:50;;;;;;;15.48;9.68;;;13.80;99.90;;;;;;5069669;28;20386;-67
2022/10/23 10:01:25;;;;;;;15.77;9.45;;;13.80;99.90;;;;;;5051299;28;20051;-64
2022/10/23 10:03:51;;;;;;;15.35;10.30;;;13.90;99.90;;;;;;5049948;28;20041;-63
2022/10/23 10:06:26;;;;;;;13.50;9.70;;;13.90;99.90;;;;;;5047346;28;20063;-65
2022/10/23 10:08:55;;;;;;;14.40;9.80;;;13.90;99.90;;;;;;5049429;28;20076;-65
2022/10/23 10:11:42;;;;;;;17.85;9.82;;;14.00;99.90;;;;;;5050234;28;20047;-65
2022/10/23 10:14:45;;;;;;;16.95;9.15;;;14.00;99.90;;;;;;5048668;28;20044;-65
2022/10/23 10:17:28;;;;;;;13.25;8.43;;;14.10;99.90;;;;;;5040189;28;20386;-65
2022/10/23 10:20:15;;;;;;;15.07;9.80;;;14.10;99.90;;;;;;5048000;28;20060;-64
2022/10/23 10:22:45;;;;;;;17.33;11.57;;;14.20;99.90;;;;;;5086289;28;20485;-65
2022/10/23 10:25:11;;;;;;;20.80;13.18;;;14.20;99.90;;;;;;5032903;28;20037;-65
2022/10/23 10:28:14;;;;;;;20.23;12.70;;;14.20;99.90;;;;;;5039965;28;20136;-65
2022/10/23 10:30:51;;;;;;;19.55;14.65;;;14.30;99.90;;;;;;5053313;28;20044;-65
2022/10/23 10:33:30;;;;;;;13.68;8.13;;;14.30;99.90;;;;;;5053880;28;20033;-65
2022/10/23 10:36:03;;;;;;;16.27;8.77;;;14.40;99.90;;;;;;5086482;28;20095;-65
2022/10/23 10:38:41;;;;;;;16.08;11.10;;;14.40;99.90;;;;;;5054456;28;20398;-65
2022/10/23 10:41:48;;;;;;;13.75;9.25;;;14.50;99.90;;;;;;5053624;28;20037;-65
2022/10/23 10:44:52;;;;;;;14.13;7.82;;;14.50;99.90;;;;;;5070848;28;20045;-65
2022/10/23 10:47:37;;;;;;;17.27;11.88;;;14.60;99.90;;;;;;5052166;28;20049;-65
2022/10/23 10:50:02;;;;;;;;;;;14.60;99.90;;;;;;5054538;28;20116;-65
2022/10/23 10:52:52;;;;;;;10.93;7.32;;;14.70;99.90;;;;;;5052577;28;19963;-65
2022/10/23 10:55:24;;;;;;;10.18;6.88;;;14.80;99.90;;;;;;5053812;28;20048;-65
2022/10/23 10:57:55;;;;;;;12.18;7.55;;;14.80;99.90;;;;;;5053571;28;20048;-65
2022/10/23 11:00:22;;;;;;;18.10;11.88;;;14.90;99.90;;;;;;5053584;28;20043;-65
2022/10/23 11:02:58;;;;;;;33.53;21.27;;;15.00;99.90;;;;;;5051613;28;20482;-65
2022/10/23 11:05:42;;;;;;;13.32;7.72;;;15.00;99.90;;;;;;5052785;28;20052;-65
2022/10/23 11:08:26;;;;;;;15.35;10.55;;;15.10;99.90;;;;;;5052544;28;20045;-65
2022/10/23 11:11:12;;;;;;;14.13;8.73;;;15.10;99.90;;;;;;5052057;28;20072;-65
2022/10/23 11:13:41;;;;;;;14.85;7.90;;;15.20;99.90;;;;;;5052163;28;20060;-65
2022/10/23 11:16:16;;;;;;;26.70;14.02;;;15.30;99.90;;;;;;5051395;28;20508;-65
2022/10/23 11:18:50;;;;;;;17.55;10.20;;;15.30;99.90;;;;;;5053249;28;20029;-65
2022/10/23 11:21:34;;;;;;;19.55;10.63;;;15.30;99.90;;;;;;5053641;28;20171;-65
2022/10/23 11:24:17;;;;;;;18.15;8.05;;;15.40;99.90;;;;;;5051484;28;20048;-65
2022/10/23 11:27:01;;;;;;;30.48;13.75;;;15.50;99.90;;;;;;5050858;28;21572;-65
2022/10/23 11:29:46;;;;;;;27.63;14.17;;;15.50;99.90;;;;;;5052324;28;20037;-65
2022/10/23 11:32:40;;;;;;;14.97;7.93;;;15.60;99.90;;;;;;5067809;28;20033;-65
2022/10/23 11:35:40;;;;;;;21.47;15.30;;;15.60;99.90;;;;;;5051216;28;20416;-64
2022/10/23 11:38:28;;;;;;;23.52;16.08;;;15.70;99.90;;;;;;5050526;28;20127;-65
2022/10/23 11:40:58;;;;;;;16.48;6.38;;;15.70;99.90;;;;;;5046342;28;20549;-64
2022/10/23 11:43:27;;;;;;;12.90;7.45;;;15.80;99.90;;;;;;5037302;28;20045;-65
2022/10/23 11:45:52;;;;;;;7.45;4.18;;;15.80;99.90;;;;;;5047688;28;20041;-65
2022/10/23 11:48:22;;;;;;;11.13;4.70;;;15.90;99.90;;;;;;5049041;28;20198;-65
2022/10/23 11:50:48;;;;;;;13.10;6.55;;;15.90;99.90;;;;;;5047717;28;20043;-65
2022/10/23 11:53:45;;;;;;;11.95;7.10;;;15.90;99.90;;;;;;5048660;28;20037;-65
2022/10/23 11:56:11;;;;;;;12.07;6.70;;;15.90;99.90;;;;;;5082309;28;20068;-65
2022/10/23 11:58:49;;;;;;;9.18;5.13;;;15.90;99.90;;;;;;5049398;28;20481;-65
2022/10/23 12:01:35;;;;;;;8.02;4.50;;;15.90;99.90;;;;;;5050261;28;20037;-65
2022/10/23 12:04:01;;;;;;;9.15;3.97;;;15.90;99.90;;;;;;5048536;28;20416;-64
2022/10/23 12:06:31;;;;;;;8.48;4.10;;;15.90;99.90;;;;;;5048937;28;20045;-65
2022/10/23 12:09:05;;;;;;;7.80;4.43;;;15.90;99.90;;;;;;5049057;28;20069;-65
2022/10/23 12:11:45;;;;;;;7.80;3.50;;;15.90;99.90;;;;;;5049933;28;20210;-65
2022/10/23 12:14:47;;;;;;;12.55;7.20;;;15.90;99.90;;;;;;5049517;28;20456;-62
2022/10/23 12:17:22;;;;;;;15.27;7.55;;;15.90;99.90;;;;;;5048625;28;20037;-62
2022/10/23 12:20:07;;;;;;;;;;;15.90;99.90;;;;;;5048933;28;20033;-62
2022/10/23 12:22:59;;;;;;;11.25;7.13;;;15.90;99.90;;;;;;5027956;28;20021;-62
2022/10/23 12:25:58;;;;;;;14.85;4.80;;;15.90;99.90;;;;;;5028542;28;20100;-62
2022/10/23 12:28:56;;;;;;;12.50;5.95;;;15.90;99.90;;;;;;5026319;28;20065;-64
2022/10/23 12:31:46;;;;;;;16.08;10.13;;;15.80;99.90;;;;;;5029579;28;20053;-65
2022/10/23 12:34:21;;;;;;;9.43;4.10;;;15.80;99.90;;;;;;5028941;28;20045;-65
2022/10/23 12:37:03;;;;;;;7.45;3.35;;;15.80;99.90;;;;;;5046637;28;20048;-65
2022/10/23 12:39:37;;;;;;;9.48;3.95;;;15.80;99.90;;;;;;5048136;28;20124;-65
2022/10/23 12:42:14;;;;;;;6.68;3.53;;;15.80;99.90;;;;;;5046645;28;20056;-64
2022/10/23 12:44:39;;;;;;;5.55;3.08;;;15.80;99.90;;;;;;5047755;28;20513;-64
2022/10/23 12:47:05;;;;;;;9.55;3.63;;;15.80;99.90;;;;;;5080380;28;20045;-65
2022/10/23 12:49:33;;;;;;;8.60;4.53;;;15.80;99.90;;;;;;5049595;28;20481;-65
2022/10/23 12:52:04;;;;;;;7.28;3.17;;;15.80;99.90;;;;;;5049267;28;20493;-64